sensor_id;sensor_type;location;lat;lon;timestamp;pressure;altitude;pressure_sealevel;temperature;humidity
37206;BME280;23099;42.636;23.198;2023-05-27T00:01:10;92058.41;;;13.76;100.00
37206;BME280;23099;42.636;23.198;2023-05-27T00:03:38;92049.97;;;13.77;100.00
37206;BME280;23099;42.636;23.198;2023-05-27T00:06:06;92042.66;;;13.74;100.00
37206;BME280;23099;42.636;23.198;2023-05-27T00:08:33;92064.19;;;13.78;100.00
37206;BME280;23099;42.636;23.198;2023-05-27T00:10:59;92055.72;;;13.72;100.00
37206;BME280;23099;42.636;23.198;2023-05-27T00:13:26;92067.22;;;13.73;100.00
37206;BME280;23099;42.636;23.198;2023-05-27T00:15:53;92077.56;;;13.67;100.00
37206;BME280;23099;42.636;23.198;2023-05-27T00:18:20;92083.34;;;13.69;100.00
37206;BME280;23099;42.636;23.198;2023-05-27T00:20:46;92089.44;;;13.63;100.00
37206;BME280;23099;42.636;23.198;2023-05-27T00:23:14;92079.84;;;13.62;100.00
37206;BME280;23099;42.636;23.198;2023-05-27T00:25:41;92065.91;;;13.38;100.00
37206;BME280;23099;42.636;23.198;2023-05-27T00:28:08;92040.50;;;13.18;100.00
37206;BME280;23099;42.636;23.198;2023-05-27T00:30:35;92069.72;;;13.34;100.00
37206;BME280;23099;42.636;23.198;2023-05-27T00:33:01;92051.66;;;13.27;100.00
37206;BME280;23099;42.636;23.198;2023-05-27T00:35:28;92039.78;;;13.28;100.00
37206;BME280;23099;42.636;23.198;2023-05-27T00:37:55;92050.16;;;13.33;100.00
37206;BME280;23099;42.636;23.198;2023-05-27T00:40:24;92054.03;;;13.36;100.00
37206;BME280;23099;42.636;23.198;2023-05-27T00:42:52;92045.19;;;13.35;100.00
37206;BME280;23099;42.636;23.198;2023-05-27T00:45:19;92049.78;;;13.35;100.00
37206;BME280;23099;42.636;23.198;2023-05-27T00:47:46;92040.59;;;13.36;100.00
37206;BME280;23099;42.636;23.198;2023-05-27T00:50:14;92038.69;;;13.36;100.00
37206;BME280;23099;42.636;23.198;2023-05-27T00:52:43;92029.44;;;13.30;100.00
37206;BME280;23099;42.636;23.198;2023-05-27T00:55:09;92024.44;;;13.29;100.00
37206;BME280;23099;42.636;23.198;2023-05-27T00:57:38;92022.53;;;13.29;100.00
37206;BME280;23099;42.636;23.198;2023-05-27T01:00:05;92024.06;;;13.30;100.00
37206;BME280;23099;42.636;23.198;2023-05-27T01:02:34;92028.63;;;13.23;100.00
37206;BME280;23099;42.636;23.198;2023-05-27T01:05:01;92017.13;;;13.22;100.00
37206;BME280;23099;42.636;23.198;2023-05-27T01:07:32;92021.34;;;13.23;100.00
37206;BME280;23099;42.636;23.198;2023-05-27T01:10:11;92010.19;;;13.18;100.00
37206;BME280;23099;42.636;23.198;2023-05-27T01:12:46;92014.06;;;13.20;100.00
37206;BME280;23099;42.636;23.198;2023-05-27T01:15:14;92017.13;;;13.22;100.00
37206;BME280;23099;42.636;23.198;2023-05-27T01:17:42;92010.19;;;13.18;100.00
37206;BME280;23099;42.636;23.198;2023-05-27T01:20:12;92009.72;;;13.05;100.00
37206;BME280;23099;42.636;23.198;2023-05-27T01:22:42;92014.75;;;13.10;100.00
37206;BME280;23099;42.636;23.198;2023-05-27T01:25:09;92016.31;;;13.15;100.00
37206;BME280;23099;42.636;23.198;2023-05-27T01:27:36;92015.16;;;13.16;100.00
37206;BME280;23099;42.636;23.198;2023-05-27T01:30:06;92012.13;;;13.17;100.00
37206;BME280;23099;42.636;23.198;2023-05-27T01:32:39;91995.25;;;13.20;100.00
37206;BME280;23099;42.636;23.198;2023-05-27T01:35:12;92004.50;;;13.23;100.00
37206;BME280;23099;42.636;23.198;2023-05-27T01:37:45;91997.53;;;13.15;100.00
37206;BME280;23099;42.636;23.198;2023-05-27T01:40:13;91989.50;;;13.18;100.00
37206;BME280;23099;42.636;23.198;2023-05-27T01:42:41;91994.91;;;13.22;100.00
37206;BME280;23099;42.636;23.198;2023-05-27T01:45:10;91992.97;;;13.22;100.00
37206;BME280;23099;42.636;23.198;2023-05-27T01:47:37;91992.59;;;13.20;100.00
37206;BME280;23099;42.636;23.198;2023-05-27T01:50:06;91974.09;;;13.08;100.00
37206;BME280;23099;42.636;23.198;2023-05-27T01:52:33;91965.66;;;13.06;100.00
37206;BME280;23099;42.636;23.198;2023-05-27T01:55:01;91999.50;;;13.21;100.00
37206;BME280;23099;42.636;23.198;2023-05-27T01:57:28;91996.41;;;13.19;100.00
37206;BME280;23099;42.636;23.198;2023-05-27T01:59:55;91994.03;;;13.07;100.00
37206;BME280;23099;42.636;23.198;2023-05-27T02:02:22;91991.66;;;12.95;100.00
37206;BME280;23099;42.636;23.198;2023-05-27T02:04:48;92000.44;;;12.92;100.00
37206;BME280;23099;42.636;23.198;2023-05-27T02:07:15;91999.28;;;12.89;100.00
37206;BME280;23099;42.636;23.198;2023-05-27T02:09:44;91989.31;;;12.90;100.00
37206;BME280;23099;42.636;23.198;2023-05-27T02:12:12;91992.00;;;12.90;100.00
37206;BME280;23099;42.636;23.198;2023-05-27T02:14:39;91995.84;;;12.92;100.00
37206;BME280;23099;42.636;23.198;2023-05-27T02:17:06;91992.00;;;12.90;100.00
37206;BME280;23099;42.636;23.198;2023-05-27T02:19:33;91993.13;;;12.85;100.00
37206;BME280;23099;42.636;23.198;2023-05-27T02:22:00;91993.84;;;12.79;100.00
37206;BME280;23099;42.636;23.198;2023-05-27T02:24:27;91999.59;;;12.77;100.00
37206;BME280;23099;42.636;23.198;2023-05-27T02:26:54;91999.94;;;12.68;100.00
37206;BME280;23099;42.636;23.198;2023-05-27T02:29:22;91991.78;;;12.58;100.00
37206;BME280;23099;42.636;23.198;2023-05-27T02:31:48;92001.06;;;12.67;100.00
37206;BME280;23099;42.636;23.198;2023-05-27T02:34:15;92002.50;;;12.58;100.00
37206;BME280;23099;42.636;23.198;2023-05-27T02:36:42;91985.53;;;12.43;100.00
37206;BME280;23099;42.636;23.198;2023-05-27T02:39:09;91977.88;;;12.42;100.00
37206;BME280;23099;42.636;23.198;2023-05-27T02:41:36;91982.47;;;12.41;100.00
37206;BME280;23099;42.636;23.198;2023-05-27T02:44:03;91999.78;;;12.51;100.00
37206;BME280;23099;42.636;23.198;2023-05-27T02:46:31;91952.50;;;12.25;100.00
37206;BME280;23099;42.636;23.198;2023-05-27T02:48:57;91964.34;;;12.24;100.00
37206;BME280;23099;42.636;23.198;2023-05-27T02:51:24;91962.03;;;12.22;100.00
37206;BME280;23099;42.636;23.198;2023-05-27T02:53:51;91977.75;;;12.24;100.00
37206;BME280;23099;42.636;23.198;2023-05-27T02:56:18;91967.44;;;12.26;100.00
37206;BME280;23099;42.636;23.198;2023-05-27T02:58:45;91981.25;;;12.31;100.00
37206;BME280;23099;42.636;23.198;2023-05-27T03:01:11;91999.72;;;12.40;100.00
37206;BME280;23099;42.636;23.198;2023-05-27T03:03:39;91961.28;;;12.22;100.00
37206;BME280;23099;42.636;23.198;2023-05-27T03:06:06;92002.00;;;12.42;100.00
37206;BME280;23099;42.636;23.198;2023-05-27T03:08:33;91991.19;;;12.31;100.00
37206;BME280;23099;42.636;23.198;2023-05-27T03:10:59;91964.25;;;12.13;100.00
37206;BME280;23099;42.636;23.198;2023-05-27T03:13:26;91965.47;;;12.19;100.00
37206;BME280;23099;42.636;23.198;2023-05-27T03:15:53;91967.69;;;12.14;100.00
37206;BME280;23099;42.636;23.198;2023-05-27T03:18:21;91965.78;;;12.11;100.00
37206;BME280;23099;42.636;23.198;2023-05-27T03:20:49;91992.66;;;12.21;100.00
37206;BME280;23099;42.636;23.198;2023-05-27T03:23:16;92005.41;;;12.35;100.00
37206;BME280;23099;42.636;23.198;2023-05-27T03:25:43;91988.53;;;12.31;100.00
37206;BME280;23099;42.636;23.198;2023-05-27T03:28:09;91999.31;;;12.38;100.00
37206;BME280;23099;42.636;23.198;2023-05-27T03:30:36;91993.50;;;12.32;100.00
37206;BME280;23099;42.636;23.198;2023-05-27T03:33:03;92004.66;;;12.38;100.00
37206;BME280;23099;42.636;23.198;2023-05-27T03:35:30;91998.16;;;12.39;100.00
37206;BME280;23099;42.636;23.198;2023-05-27T03:37:58;91986.94;;;12.26;100.00
37206;BME280;23099;42.636;23.198;2023-05-27T03:40:24;91994.28;;;12.33;100.00
37206;BME280;23099;42.636;23.198;2023-05-27T03:42:52;91998.91;;;12.36;100.00
37206;BME280;23099;42.636;23.198;2023-05-27T03:45:19;92006.66;;;12.48;100.00
37206;BME280;23099;42.636;23.198;2023-05-27T03:47:46;91987.09;;;12.41;100.00
37206;BME280;23099;42.636;23.198;2023-05-27T03:50:13;91999.03;;;12.50;100.00
37206;BME280;23099;42.636;23.198;2023-05-27T03:52:39;91975.09;;;12.27;100.00
37206;BME280;23099;42.636;23.198;2023-05-27T03:55:08;92001.63;;;12.43;100.00
37206;BME280;23099;42.636;23.198;2023-05-27T03:57:35;91987.44;;;12.39;100.00
37206;BME280;23099;42.636;23.198;2023-05-27T04:00:03;91992.81;;;12.43;100.00
37206;BME280;23099;42.636;23.198;2023-05-27T04:02:33;91994.00;;;12.45;100.00
37206;BME280;23099;42.636;23.198;2023-05-27T04:04:59;91992.13;;;12.49;100.00
37206;BME280;23099;42.636;23.198;2023-05-27T04:07:27;91959.00;;;12.24;100.00
37206;BME280;23099;42.636;23.198;2023-05-27T04:09:54;92009.78;;;12.57;100.00
37206;BME280;23099;42.636;23.198;2023-05-27T04:12:22;91996.81;;;12.63;100.00
37206;BME280;23099;42.636;23.198;2023-05-27T04:14:49;91989.50;;;12.60;100.00
37206;BME280;23099;42.636;23.198;2023-05-27T04:17:16;92002.97;;;12.70;100.00
37206;BME280;23099;42.636;23.198;2023-05-27T04:19:43;91978.03;;;12.63;100.00
37206;BME280;23099;42.636;23.198;2023-05-27T04:22:14;91976.09;;;12.60;100.00
37206;BME280;23099;42.636;23.198;2023-05-27T04:24:41;92006.53;;;12.85;100.00
37206;BME280;23099;42.636;23.198;2023-05-27T04:27:08;92005.44;;;12.93;100.00
37206;BME280;23099;42.636;23.198;2023-05-27T04:29:37;92003.94;;;12.96;100.00
37206;BME280;23099;42.636;23.198;2023-05-27T04:32:04;91962.38;;;12.68;100.00
37206;BME280;23099;42.636;23.198;2023-05-27T04:34:31;91976.66;;;12.83;100.00
37206;BME280;23099;42.636;23.198;2023-05-27T04:36:58;91983.19;;;12.89;100.00
37206;BME280;23099;42.636;23.198;2023-05-27T04:39:26;92012.81;;;13.07;100.00
37206;BME280;23099;42.636;23.198;2023-05-27T04:41:53;91997.06;;;13.02;100.00
37206;BME280;23099;42.636;23.198;2023-05-27T04:44:22;91981.31;;;12.97;100.00
37206;BME280;23099;42.636;23.198;2023-05-27T04:46:50;92017.16;;;13.26;100.00
37206;BME280;23099;42.636;23.198;2023-05-27T04:49:18;91972.16;;;13.05;100.00
37206;BME280;23099;42.636;23.198;2023-05-27T04:51:44;92002.59;;;13.27;100.00
37206;BME280;23099;42.636;23.198;2023-05-27T04:54:12;92014.53;;;13.43;100.00
37206;BME280;23099;42.636;23.198;2023-05-27T04:56:39;92005.75;;;13.47;100.00
37206;BME280;23099;42.636;23.198;2023-05-27T04:59:06;92016.53;;;13.54;100.00
37206;BME280;23099;42.636;23.198;2023-05-27T05:01:32;92011.91;;;13.58;100.00
37206;BME280;23099;42.636;23.198;2023-05-27T05:04:15;92014.97;;;13.53;100.00
37206;BME280;23099;42.636;23.198;2023-05-27T05:06:42;92019.97;;;13.54;100.00
37206;BME280;23099;42.636;23.198;2023-05-27T05:09:09;92025.34;;;13.58;100.00
37206;BME280;23099;42.636;23.198;2023-05-27T05:11:37;92021.13;;;13.53;100.00
37206;BME280;23099;42.636;23.198;2023-05-27T05:14:03;92021.13;;;13.53;100.00
37206;BME280;23099;42.636;23.198;2023-05-27T05:16:30;92028.41;;;13.53;100.00
37206;BME280;23099;42.636;23.198;2023-05-27T05:18:57;92029.53;;;13.52;100.00
37206;BME280;23099;42.636;23.198;2023-05-27T05:21:25;92022.25;;;13.52;100.00
37206;BME280;23099;42.636;23.198;2023-05-27T05:23:52;92030.28;;;13.45;100.00
37206;BME280;23099;42.636;23.198;2023-05-27T05:26:18;92025.28;;;13.43;100.00
37206;BME280;23099;42.636;23.198;2023-05-27T05:28:45;92023.75;;;13.39;100.00
37206;BME280;23099;42.636;23.198;2023-05-27T05:31:12;91999.88;;;13.23;100.00
37206;BME280;23099;42.636;23.198;2023-05-27T05:33:38;92033.75;;;13.49;100.00
37206;BME280;23099;42.636;23.198;2023-05-27T05:36:06;92033.72;;;13.42;100.00
37206;BME280;23099;42.636;23.198;2023-05-27T05:38:34;92024.50;;;13.36;100.00
37206;BME280;23099;42.636;23.198;2023-05-27T05:41:01;92039.53;;;13.51;100.00
37206;BME280;23099;42.636;23.198;2023-05-27T05:43:27;92039.53;;;13.55;100.00
37206;BME280;23099;42.636;23.198;2023-05-27T05:45:54;92048.38;;;13.62;100.00
37206;BME280;23099;42.636;23.198;2023-05-27T05:48:21;92048.41;;;13.66;100.00
37206;BME280;23099;42.636;23.198;2023-05-27T05:50:48;92046.13;;;13.68;100.00
37206;BME280;23099;42.636;23.198;2023-05-27T05:53:15;92046.91;;;13.79;100.00
37206;BME280;23099;42.636;23.198;2023-05-27T05:55:43;92040.41;;;13.84;100.00
37206;BME280;23099;42.636;23.198;2023-05-27T05:58:10;92046.56;;;13.91;100.00
37206;BME280;23099;42.636;23.198;2023-05-27T06:00:37;92037.69;;;13.76;100.00
37206;BME280;23099;42.636;23.198;2023-05-27T06:03:04;92048.06;;;13.85;100.00
37206;BME280;23099;42.636;23.198;2023-05-27T06:05:31;92044.25;;;13.86;100.00
37206;BME280;23099;42.636;23.198;2023-05-27T06:07:57;92010.41;;;13.64;100.00
37206;BME280;23099;42.636;23.198;2023-05-27T06:10:24;92012.00;;;13.79;100.00
37206;BME280;23099;42.636;23.198;2023-05-27T06:12:52;92008.19;;;13.84;100.00
37206;BME280;23099;42.636;23.198;2023-05-27T06:15:19;92029.34;;;13.99;100.00
37206;BME280;23099;42.636;23.198;2023-05-27T06:17:45;92022.44;;;14.09;100.00
37206;BME280;23099;42.636;23.198;2023-05-27T06:20:12;92060.50;;;14.36;100.00
37206;BME280;23099;42.636;23.198;2023-05-27T06:22:39;92058.25;;;14.41;100.00
37206;BME280;23099;42.636;23.198;2023-05-27T06:25:06;92064.78;;;14.55;100.00
37206;BME280;23099;42.636;23.198;2023-05-27T06:27:33;92070.94;;;14.66;100.00
37206;BME280;23099;42.636;23.198;2023-05-27T06:30:01;92068.25;;;14.73;100.00
37206;BME280;23099;42.636;23.198;2023-05-27T06:32:28;92040.97;;;14.53;100.00
37206;BME280;23099;42.636;23.198;2023-05-27T06:34:55;92036.75;;;14.63;100.00
37206;BME280;23099;42.636;23.198;2023-05-27T06:37:22;92064.41;;;14.92;100.00
37206;BME280;23099;42.636;23.198;2023-05-27T06:39:48;92068.25;;;14.98;100.00
37206;BME280;23099;42.636;23.198;2023-05-27T06:42:15;92061.72;;;15.06;100.00
37206;BME280;23099;42.636;23.198;2023-05-27T06:44:43;92063.63;;;15.09;100.00
37206;BME280;23099;42.636;23.198;2023-05-27T06:47:11;92077.88;;;15.09;100.00
37206;BME280;23099;42.636;23.198;2023-05-27T06:49:38;92072.47;;;15.20;100.00
37206;BME280;23099;42.636;23.198;2023-05-27T06:52:05;92064.78;;;15.18;100.00
37206;BME280;23099;42.636;23.198;2023-05-27T06:54:32;92076.28;;;15.33;100.00
37206;BME280;23099;42.636;23.198;2023-05-27T06:56:58;92085.13;;;15.30;100.00
37206;BME280;23099;42.636;23.198;2023-05-27T06:59:25;92080.53;;;15.38;100.00
37206;BME280;23099;42.636;23.198;2023-05-27T07:01:52;92079.38;;;15.39;100.00
37206;BME280;23099;42.636;23.198;2023-05-27T07:04:20;92080.50;;;15.48;100.00
37206;BME280;23099;42.636;23.198;2023-05-27T07:06:46;92078.56;;;15.45;100.00
37206;BME280;23099;42.636;23.198;2023-05-27T07:12:32;92072.06;;;15.57;100.00
37206;BME280;23099;42.636;23.198;2023-05-27T07:14:59;92082.03;;;15.67;100.00
37206;BME280;23099;42.636;23.198;2023-05-27T07:17:25;92079.69;;;15.76;100.00
37206;BME280;23099;42.636;23.198;2023-05-27T07:19:53;92085.44;;;15.82;100.00
37206;BME280;23099;42.636;23.198;2023-05-27T07:22:20;92086.56;;;15.88;100.00
37206;BME280;23099;42.636;23.198;2023-05-27T07:24:47;92083.47;;;15.89;100.00
37206;BME280;23099;42.636;23.198;2023-05-27T07:27:13;92085.44;;;15.85;100.00
37206;BME280;23099;42.636;23.198;2023-05-27T07:29:40;92082.31;;;15.87;100.00
37206;BME280;23099;42.636;23.198;2023-05-27T07:32:07;92086.97;;;15.86;100.00
37206;BME280;23099;42.636;23.198;2023-05-27T07:34:33;92086.97;;;15.83;100.00
37206;BME280;23099;42.636;23.198;2023-05-27T07:37:02;92084.25;;;15.90;100.00
37206;BME280;23099;42.636;23.198;2023-05-27T07:39:28;92083.47;;;16.00;100.00
37206;BME280;23099;42.636;23.198;2023-05-27T07:41:55;92086.13;;;16.04;100.00
37206;BME280;23099;42.636;23.198;2023-05-27T07:44:22;92084.63;;;15.99;100.00
37206;BME280;23099;42.636;23.198;2023-05-27T07:46:48;92081.50;;;16.08;99.80
37206;BME280;23099;42.636;23.198;2023-05-27T07:49:15;92087.28;;;16.06;100.00
37206;BME280;23099;42.636;23.198;2023-05-27T07:51:42;92081.81;;;16.17;99.57
37206;BME280;23099;42.636;23.198;2023-05-27T07:54:10;92076.03;;;16.25;98.60
37206;BME280;23099;42.636;23.198;2023-05-27T07:56:36;92074.44;;;16.32;97.15
37206;BME280;23099;42.636;23.198;2023-05-27T07:59:03;92079.78;;;16.42;97.83
37206;BME280;23099;42.636;23.198;2023-05-27T08:01:29;92080.91;;;16.45;96.15
37206;BME280;23099;42.636;23.198;2023-05-27T08:03:57;92068.59;;;16.44;94.59
37206;BME280;23099;42.636;23.198;2023-05-27T08:06:24;92086.31;;;16.45;92.52
37206;BME280;23099;42.636;23.198;2023-05-27T08:08:51;92088.19;;;16.51;93.73
37206;BME280;23099;42.636;23.198;2023-05-27T08:11:19;92079.72;;;16.49;93.43
37206;BME280;23099;42.636;23.198;2023-05-27T08:13:45;92086.66;;;16.50;92.60
37206;BME280;23099;42.636;23.198;2023-05-27T08:16:12;92083.97;;;16.50;93.39
37206;BME280;23099;42.636;23.198;2023-05-27T08:18:39;92097.38;;;16.61;92.13
37206;BME280;23099;42.636;23.198;2023-05-27T08:21:05;92089.69;;;16.63;90.74
37206;BME280;23099;42.636;23.198;2023-05-27T08:23:32;92095.06;;;16.59;88.71
37206;BME280;23099;42.636;23.198;2023-05-27T08:25:59;92098.53;;;16.67;89.78
37206;BME280;23099;42.636;23.198;2023-05-27T08:28:27;92089.28;;;16.72;89.62
37206;BME280;23099;42.636;23.198;2023-05-27T08:30:54;92092.31;;;16.77;89.83
37206;BME280;23099;42.636;23.198;2023-05-27T08:33:20;92085.72;;;16.82;88.47
37206;BME280;23099;42.636;23.198;2023-05-27T08:35:48;92093.84;;;16.75;86.40
37206;BME280;23099;42.636;23.198;2023-05-27T08:38:15;92088.44;;;16.78;88.15
37206;BME280;23099;42.636;23.198;2023-05-27T08:40:42;92091.19;;;16.71;86.52
37206;BME280;23099;42.636;23.198;2023-05-27T08:43:08;92090.03;;;16.72;86.79
37206;BME280;23099;42.636;23.198;2023-05-27T08:45:37;92090.66;;;16.94;87.02
37206;BME280;23099;42.636;23.198;2023-05-27T08:48:06;92095.66;;;16.95;87.17
37206;BME280;23099;42.636;23.198;2023-05-27T08:50:34;92099.88;;;16.96;84.91
37206;BME280;23099;42.636;23.198;2023-05-27T08:53:02;92097.59;;;16.95;82.37
37206;BME280;23099;42.636;23.198;2023-05-27T08:55:30;92097.88;;;17.08;83.24
37206;BME280;23099;42.636;23.198;2023-05-27T08:57:58;92090.50;;;17.15;83.65
37206;BME280;23099;42.636;23.198;2023-05-27T09:00:26;92088.88;;;17.21;83.12
37206;BME280;23099;42.636;23.198;2023-05-27T09:02:54;92088.09;;;17.24;82.53
37206;BME280;23099;42.636;23.198;2023-05-27T09:05:21;92078.84;;;17.22;81.75
37206;BME280;23099;42.636;23.198;2023-05-27T09:07:48;92095.44;;;17.24;80.63
37206;BME280;23099;42.636;23.198;2023-05-27T09:10:15;92080.81;;;17.18;81.21
37206;BME280;23099;42.636;23.198;2023-05-27T09:12:42;92090.78;;;17.24;82.76
37206;BME280;23099;42.636;23.198;2023-05-27T09:15:10;92094.66;;;17.23;82.32
37206;BME280;23099;42.636;23.198;2023-05-27T09:17:40;92098.91;;;17.21;81.89
37206;BME280;23099;42.636;23.198;2023-05-27T09:20:09;92090.03;;;17.20;83.82
37206;BME280;23099;42.636;23.198;2023-05-27T09:22:38;92092.34;;;17.22;82.63
37206;BME280;23099;42.636;23.198;2023-05-27T09:25:06;92077.25;;;17.28;83.84
37206;BME280;23099;42.636;23.198;2023-05-27T09:27:33;92089.53;;;17.36;84.40
37206;BME280;23099;42.636;23.198;2023-05-27T09:30:07;92081.69;;;17.49;83.58
37206;BME280;23099;42.636;23.198;2023-05-27T09:32:34;92087.16;;;17.45;83.40
37206;BME280;23099;42.636;23.198;2023-05-27T09:35:02;92083.63;;;17.48;83.00
37206;BME280;23099;42.636;23.198;2023-05-27T09:37:31;92079.69;;;17.56;82.65
37206;BME280;23099;42.636;23.198;2023-05-27T09:39:58;92090.19;;;17.47;80.99
37206;BME280;23099;42.636;23.198;2023-05-27T09:42:25;92080.91;;;17.48;83.17
37206;BME280;23099;42.636;23.198;2023-05-27T09:44:54;92080.09;;;17.55;82.34
37206;BME280;23099;42.636;23.198;2023-05-27T09:47:20;92090.34;;;17.74;80.65
37206;BME280;23099;42.636;23.198;2023-05-27T09:49:49;92086.72;;;17.88;83.35
37206;BME280;23099;42.636;23.198;2023-05-27T09:52:18;92087.22;;;17.76;81.68
37206;BME280;23099;42.636;23.198;2023-05-27T09:54:48;92079.31;;;17.92;81.49
37206;BME280;23099;42.636;23.198;2023-05-27T09:57:16;92082.00;;;17.95;82.62
37206;BME280;23099;42.636;23.198;2023-05-27T09:59:45;92092.28;;;18.08;80.69
37206;BME280;23099;42.636;23.198;2023-05-27T10:02:12;92099.59;;;18.11;80.15
37206;BME280;23099;42.636;23.198;2023-05-27T10:04:42;92093.03;;;18.12;81.59
37206;BME280;23099;42.636;23.198;2023-05-27T10:07:10;92097.47;;;18.29;80.83
37206;BME280;23099;42.636;23.198;2023-05-27T10:09:37;92087.75;;;18.31;79.18
37206;BME280;23099;42.636;23.198;2023-05-27T10:12:06;92093.00;;;18.46;78.95
37206;BME280;23099;42.636;23.198;2023-05-27T10:14:33;92084.94;;;18.38;76.44
37206;BME280;23099;42.636;23.198;2023-05-27T10:17:00;92077.09;;;18.48;78.41
37206;BME280;23099;42.636;23.198;2023-05-27T10:19:27;92080.31;;;18.69;78.95
37206;BME280;23099;42.636;23.198;2023-05-27T10:21:53;92075.09;;;18.82;79.85
37206;BME280;23099;42.636;23.198;2023-05-27T10:24:30;92079.53;;;18.96;75.37
37206;BME280;23099;42.636;23.198;2023-05-27T10:27:00;92076.56;;;19.14;77.46
37206;BME280;23099;42.636;23.198;2023-05-27T10:29:36;92077.81;;;19.32;75.33
37206;BME280;23099;42.636;23.198;2023-05-27T10:32:03;92067.78;;;19.29;76.76
37206;BME280;23099;42.636;23.198;2023-05-27T10:34:34;92066.19;;;19.08;76.42
37206;BME280;23099;42.636;23.198;2023-05-27T10:37:00;92065.38;;;19.12;77.91
37206;BME280;23099;42.636;23.198;2023-05-27T10:39:27;92064.06;;;19.20;75.73
37206;BME280;23099;42.636;23.198;2023-05-27T10:41:56;92066.84;;;19.16;74.49
37206;BME280;23099;42.636;23.198;2023-05-27T10:44:27;92049.06;;;19.15;74.57
37206;BME280;23099;42.636;23.198;2023-05-27T10:47:00;92072.31;;;19.13;74.83
37206;BME280;23099;42.636;23.198;2023-05-27T10:49:28;92067.25;;;19.15;74.94
37206;BME280;23099;42.636;23.198;2023-05-27T10:52:05;92056.75;;;18.93;74.32
37206;BME280;23099;42.636;23.198;2023-05-27T10:54:36;92058.44;;;18.84;76.26
37206;BME280;23099;42.636;23.198;2023-05-27T10:57:03;92059.53;;;18.90;75.92
37206;BME280;23099;42.636;23.198;2023-05-27T10:59:39;92058.31;;;18.91;75.35
37206;BME280;23099;42.636;23.198;2023-05-27T11:02:08;92053.94;;;19.00;76.57
37206;BME280;23099;42.636;23.198;2023-05-27T11:04:34;92047.81;;;19.20;78.18
37206;BME280;23099;42.636;23.198;2023-05-27T11:07:01;92047.28;;;19.28;74.91
37206;BME280;23099;42.636;23.198;2023-05-27T11:09:28;92037.78;;;19.40;73.86
37206;BME280;23099;42.636;23.198;2023-05-27T11:11:55;92040.38;;;19.70;72.31
37206;BME280;23099;42.636;23.198;2023-05-27T11:14:22;92041.28;;;19.84;71.47
37206;BME280;23099;42.636;23.198;2023-05-27T11:16:50;92022.22;;;19.87;72.59
37206;BME280;23099;42.636;23.198;2023-05-27T11:19:21;92028.06;;;19.86;71.59
37206;BME280;23099;42.636;23.198;2023-05-27T11:21:48;92030.84;;;20.02;70.20
37206;BME280;23099;42.636;23.198;2023-05-27T11:24:15;92029.91;;;20.28;70.22
37206;BME280;23099;42.636;23.198;2023-05-27T11:26:43;92015.88;;;20.33;67.91
37206;BME280;23099;42.636;23.198;2023-05-27T11:29:11;92011.44;;;20.59;68.51
37206;BME280;23099;42.636;23.198;2023-05-27T11:31:38;92010.38;;;20.17;69.89
37206;BME280;23099;42.636;23.198;2023-05-27T11:34:11;92013.63;;;20.48;67.81
37206;BME280;23099;42.636;23.198;2023-05-27T11:36:40;92002.56;;;20.75;67.52
37206;BME280;23099;42.636;23.198;2023-05-27T11:39:10;92001.34;;;20.92;65.17
37206;BME280;23099;42.636;23.198;2023-05-27T11:41:48;91993.47;;;21.14;66.36
37206;BME280;23099;42.636;23.198;2023-05-27T11:44:15;92004.81;;;21.41;64.13
37206;BME280;23099;42.636;23.198;2023-05-27T11:46:42;91994.56;;;21.33;63.61
37206;BME280;23099;42.636;23.198;2023-05-27T11:49:10;91990.34;;;21.61;64.28
37206;BME280;23099;42.636;23.198;2023-05-27T11:51:40;91983.03;;;21.86;65.05
37206;BME280;23099;42.636;23.198;2023-05-27T11:54:07;91989.47;;;21.93;63.66
37206;BME280;23099;42.636;23.198;2023-05-27T11:56:41;91992.41;;;22.27;62.39
37206;BME280;23099;42.636;23.198;2023-05-27T11:59:08;91998.19;;;22.54;60.20
37206;BME280;23099;42.636;23.198;2023-05-27T12:01:34;91981.66;;;22.49;57.80
37206;BME280;23099;42.636;23.198;2023-05-27T12:04:01;91975.34;;;22.65;60.94
37206;BME280;23099;42.636;23.198;2023-05-27T12:06:29;91986.00;;;22.72;57.03
37206;BME280;23099;42.636;23.198;2023-05-27T12:08:58;91972.28;;;22.63;57.06
37206;BME280;23099;42.636;23.198;2023-05-27T12:11:24;91980.22;;;22.70;56.08
37206;BME280;23099;42.636;23.198;2023-05-27T12:13:52;91986.25;;;22.65;56.75
37206;BME280;23099;42.636;23.198;2023-05-27T12:16:19;91989.50;;;22.60;57.25
37206;BME280;23099;42.636;23.198;2023-05-27T12:18:46;91989.81;;;22.49;55.74
37206;BME280;23099;42.636;23.198;2023-05-27T12:21:13;91986.13;;;22.55;53.57
37206;BME280;23099;42.636;23.198;2023-05-27T12:23:40;91980.75;;;22.52;56.41
37206;BME280;23099;42.636;23.198;2023-05-27T12:26:08;91989.25;;;22.29;55.80
37206;BME280;23099;42.636;23.198;2023-05-27T12:28:35;91987.84;;;22.37;56.43
37206;BME280;23099;42.636;23.198;2023-05-27T12:31:02;91975.78;;;22.50;56.53
37206;BME280;23099;42.636;23.198;2023-05-27T12:33:29;91969.84;;;22.14;56.99
37206;BME280;23099;42.636;23.198;2023-05-27T12:35:56;91967.97;;;22.11;59.46
37206;BME280;23099;42.636;23.198;2023-05-27T12:38:23;91978.00;;;22.14;58.28
37206;BME280;23099;42.636;23.198;2023-05-27T12:40:50;91959.47;;;22.09;58.43
37206;BME280;23099;42.636;23.198;2023-05-27T12:43:18;91953.09;;;22.28;59.81
37206;BME280;23099;42.636;23.198;2023-05-27T12:45:45;91956.13;;;22.17;55.39
37206;BME280;23099;42.636;23.198;2023-05-27T12:48:13;91952.66;;;22.17;57.52